createdAt,value
2019-05-12T00:01:33.971Z,2.10
2019-05-12T00:04:05.146Z,11.33
2019-05-12T00:06:38.580Z,3.70
2019-05-12T00:09:09.229Z,2.80
2019-05-12T00:11:40.624Z,2.73
2019-05-12T00:14:11.612Z,3.17
2019-05-12T00:16:43.678Z,2.10
2019-05-12T00:19:14.665Z,2.40
2019-05-12T00:21:48.138Z,2.60
2019-05-12T00:24:18.823Z,2.20
2019-05-12T00:26:51.898Z,2.87
2019-05-12T00:29:22.989Z,4.63
2019-05-12T00:31:54.068Z,4.17
2019-05-12T00:34:25.122Z,4.13
2019-05-12T00:36:57.713Z,4.23
2019-05-12T00:39:28.912Z,4.87
2019-05-12T00:41:59.993Z,5.87
2019-05-12T00:44:31.294Z,5.73
2019-05-12T00:47:02.475Z,6.40
2019-05-12T00:49:33.509Z,5.93
2019-05-12T00:52:04.660Z,4.80
2019-05-12T00:54:37.555Z,5.27
2019-05-12T00:57:08.480Z,4.10
2019-05-12T00:59:39.565Z,6.00
2019-05-12T01:02:10.568Z,9.80
2019-05-12T01:04:41.579Z,6.33
2019-05-12T01:07:12.899Z,7.50
2019-05-12T01:09:43.935Z,6.33
2019-05-12T01:12:14.998Z,7.27
2019-05-12T01:14:47.782Z,6.90
2019-05-12T01:17:18.813Z,7.23
2019-05-12T01:19:49.876Z,6.90
2019-05-12T01:22:21.029Z,6.70
2019-05-12T01:24:52.075Z,5.67
2019-05-12T01:27:23.110Z,6.33
2019-05-12T01:29:54.105Z,5.63
2019-05-12T01:32:33.069Z,5.00
2019-05-12T01:35:04.490Z,4.30
2019-05-12T01:37:38.107Z,4.67
2019-05-12T01:40:10.763Z,6.07
2019-05-12T01:42:41.949Z,7.13
2019-05-12T01:45:14.464Z,3.87
2019-05-12T01:47:48.546Z,3.70
2019-05-12T01:50:19.524Z,4.53
2019-05-12T01:52:50.654Z,4.43
2019-05-12T01:55:21.637Z,3.33
2019-05-12T01:57:52.677Z,6.40
2019-05-12T02:00:24.740Z,4.70
2019-05-12T02:02:58.138Z,5.00
2019-05-12T02:05:28.669Z,4.43
2019-05-12T02:08:01.150Z,4.97
2019-05-12T02:10:32.575Z,5.70
2019-05-12T02:13:03.545Z,4.40
2019-05-12T02:15:34.563Z,6.03
2019-05-12T02:18:05.598Z,5.40
2019-05-12T02:20:38.132Z,7.50
2019-05-12T02:23:09.497Z,6.10
2019-05-12T02:25:40.443Z,7.40
2019-05-12T02:28:11.439Z,5.10
2019-05-12T02:30:42.479Z,7.83
2019-05-12T02:33:15.902Z,6.73
2019-05-12T02:35:46.150Z,5.30
2019-05-12T02:38:17.110Z,4.17
2019-05-12T02:40:48.144Z,6.37
2019-05-12T02:43:19.098Z,4.90
2019-05-12T02:45:50.066Z,4.90
2019-05-12T02:48:24.369Z,6.40
2019-05-12T02:50:54.621Z,7.63
2019-05-12T02:53:25.630Z,6.37
2019-05-12T02:55:57.629Z,10.57
2019-05-12T02:58:29.974Z,5.37
2019-05-12T03:01:05.418Z,7.97
2019-05-12T03:03:37.889Z,8.53
2019-05-12T03:06:09.029Z,7.73
2019-05-12T03:08:40.185Z,6.43
2019-05-12T03:11:11.123Z,6.70
2019-05-12T03:16:53.980Z,6.80
2019-05-12T03:19:25.379Z,7.17
2019-05-12T03:21:56.621Z,6.50
2019-05-12T03:24:27.577Z,7.47
2019-05-12T03:26:58.557Z,10.10
2019-05-12T03:29:29.557Z,8.23
2019-05-12T03:32:00.575Z,5.80
2019-05-12T03:34:37.549Z,6.57
2019-05-12T03:37:07.770Z,7.17
2019-05-12T03:39:37.444Z,8.67
2019-05-12T03:42:08.518Z,6.27
2019-05-12T03:44:39.483Z,6.17
2019-05-12T03:47:10.660Z,10.50
2019-05-12T03:49:41.605Z,6.17
2019-05-12T03:52:15.241Z,4.97
2019-05-12T03:54:45.297Z,7.73
2019-05-12T03:57:16.392Z,5.03
2019-05-12T03:59:47.353Z,9.03
2019-05-12T04:02:19.403Z,5.03
2019-05-12T04:04:50.470Z,3.57
2019-05-12T04:07:24.253Z,3.70
2019-05-12T04:09:54.926Z,5.60
2019-05-12T04:12:26.176Z,7.03
2019-05-12T04:14:57.201Z,4.20
2019-05-12T04:17:28.294Z,3.10
2019-05-12T04:19:59.296Z,3.30
2019-05-12T04:22:30.277Z,4.33
2019-05-12T04:25:01.304Z,3.63
2019-05-12T04:27:34.867Z,2.57
2019-05-12T04:30:05.705Z,2.60
2019-05-12T04:32:36.738Z,3.73
2019-05-12T04:35:07.907Z,3.10
2019-05-12T04:37:38.888Z,8.63
2019-05-12T04:40:10.180Z,8.83
2019-05-12T04:42:44.884Z,1.90
2019-05-12T04:45:15.697Z,13.30
2019-05-12T04:47:47.205Z,2.87
2019-05-12T04:50:18.613Z,2.47
2019-05-12T04:52:49.584Z,2.63
2019-05-12T04:55:20.546Z,2.27
2019-05-12T04:57:54.013Z,3.73
2019-05-12T05:00:25.765Z,2.67
2019-05-12T05:02:57.149Z,3.20
2019-05-12T05:05:28.124Z,4.70
2019-05-12T05:07:59.145Z,4.40
2019-05-12T05:10:30.134Z,2.57
2019-05-12T05:13:01.162Z,7.30
2019-05-12T05:15:34.885Z,2.40
2019-05-12T05:18:06.811Z,4.40
2019-05-12T05:20:37.671Z,3.50
2019-05-12T05:23:08.619Z,2.43
2019-05-12T05:25:39.630Z,5.87
2019-05-12T05:28:10.605Z,4.30
2019-05-12T05:30:43.668Z,3.50
2019-05-12T05:33:14.735Z,2.30
2019-05-12T05:35:45.919Z,4.60
2019-05-12T05:38:20.563Z,4.30
2019-05-12T05:40:49.573Z,6.17
2019-05-12T05:43:20.561Z,3.17
2019-05-12T05:45:56.168Z,2.03
2019-05-12T05:48:24.261Z,2.73
2019-05-12T05:50:55.214Z,2.30
2019-05-12T05:53:26.326Z,3.00
2019-05-12T05:56:00.189Z,2.83
2019-05-12T05:58:29.983Z,3.17
2019-05-12T06:01:03.828Z,3.43
2019-05-12T06:03:33.967Z,2.67
2019-05-12T06:06:10.915Z,11.03
2019-05-12T06:08:37.782Z,2.10
2019-05-12T06:11:13.525Z,2.70
2019-05-12T06:13:41.506Z,2.50
2019-05-12T06:16:20.722Z,2.20
2019-05-12T06:18:46.910Z,3.83
2019-05-12T06:21:17.903Z,4.87
2019-05-12T06:23:48.846Z,2.37
2019-05-12T06:26:21.177Z,4.73
2019-05-12T06:28:55.916Z,7.53
2019-05-12T06:31:29.771Z,3.37
2019-05-12T06:33:58.007Z,2.47
2019-05-12T06:36:29.042Z,3.27
2019-05-12T06:38:59.993Z,2.50
2019-05-12T06:41:33.094Z,3.80
2019-05-12T06:44:03.885Z,3.70
2019-05-12T06:46:34.968Z,3.80
2019-05-12T06:49:12.776Z,3.00
2019-05-12T06:51:38.682Z,6.27
2019-05-12T06:54:11.968Z,3.70
2019-05-12T06:56:43.558Z,2.83
2019-05-12T06:59:14.943Z,3.50
2019-05-12T07:01:49.777Z,2.70
2019-05-12T07:04:21.260Z,3.43
2019-05-12T07:06:56.370Z,3.77
2019-05-12T07:09:28.094Z,3.30
2019-05-12T07:12:03.002Z,3.20
2019-05-12T07:14:29.726Z,5.03
2019-05-12T07:17:06.363Z,3.40
2019-05-12T07:19:37.485Z,3.63
2019-05-12T07:22:19.944Z,2.50
2019-05-12T07:24:50.135Z,3.90
2019-05-12T07:27:14.178Z,7.30
2019-05-12T07:29:45.365Z,3.00
2019-05-12T07:32:21.684Z,5.80
2019-05-12T07:34:49.346Z,4.23
2019-05-12T07:37:23.590Z,3.70
2019-05-12T07:39:55.410Z,2.57
2019-05-12T07:42:31.455Z,3.13
2019-05-12T07:45:05.579Z,3.27
2019-05-12T07:47:36.638Z,2.83
2019-05-12T07:50:09.752Z,4.43
2019-05-12T07:52:40.615Z,4.17
2019-05-12T07:55:11.731Z,3.30
2019-05-12T07:57:52.810Z,3.40
2019-05-12T08:00:21.068Z,3.63
2019-05-12T08:02:49.048Z,4.20
2019-05-12T08:05:21.369Z,5.00
2019-05-12T08:07:53.689Z,6.20
2019-05-12T08:10:24.649Z,3.60
2019-05-12T08:12:59.309Z,3.73
2019-05-12T08:15:28.304Z,5.27
2019-05-12T08:17:59.714Z,4.33
2019-05-12T08:20:30.821Z,4.70
2019-05-12T08:23:05.834Z,4.77
2019-05-12T08:25:35.233Z,3.90
2019-05-12T08:28:14.987Z,3.40
2019-05-12T08:30:45.755Z,4.40
2019-05-12T08:33:14.339Z,4.33
2019-05-12T08:35:44.768Z,4.10
2019-05-12T08:38:15.920Z,5.97
2019-05-12T08:40:50.957Z,5.93
2019-05-12T08:43:19.641Z,5.40
2019-05-12T08:45:50.597Z,5.00
2019-05-12T08:48:24.797Z,6.73
2019-05-12T08:50:54.775Z,8.37
2019-05-12T08:53:26.380Z,4.73
2019-05-12T08:55:57.455Z,5.70
2019-05-12T08:58:33.604Z,10.50
2019-05-12T09:01:04.451Z,5.67
2019-05-12T09:03:35.007Z,11.07
2019-05-12T09:06:09.391Z,4.80
2019-05-12T09:08:45.243Z,8.97
2019-05-12T09:11:13.765Z,5.67
2019-05-12T09:13:44.433Z,3.77
2019-05-12T09:16:15.480Z,5.83
2019-05-12T09:18:46.453Z,7.73
2019-05-12T09:21:17.487Z,6.57
2019-05-12T09:23:48.459Z,5.20
2019-05-12T09:26:26.738Z,5.70
2019-05-12T09:28:54.172Z,4.27
2019-05-12T09:31:29.298Z,5.97
2019-05-12T09:33:57.910Z,5.30
2019-05-12T09:36:29.405Z,7.43
2019-05-12T09:39:03.004Z,6.13
2019-05-12T09:41:41.734Z,6.63
2019-05-12T09:44:06.173Z,6.83
2019-05-12T09:46:37.721Z,6.10
2019-05-12T09:49:08.918Z,7.43
2019-05-12T09:51:42.685Z,13.50
2019-05-12T09:54:13.939Z,6.77
2019-05-12T09:56:49.951Z,11.03
2019-05-12T09:59:22.854Z,12.40
2019-05-12T10:01:50.555Z,13.20
2019-05-12T10:04:21.689Z,7.63
2019-05-12T10:06:53.513Z,9.63
2019-05-12T10:09:24.610Z,16.83
2019-05-12T10:12:00.466Z,9.10
2019-05-12T10:14:28.252Z,9.33
2019-05-12T10:16:59.222Z,10.80
2019-05-12T10:19:30.190Z,19.10
2019-05-12T10:22:01.147Z,9.60
2019-05-12T10:24:40.597Z,16.03
2019-05-12T10:27:04.921Z,8.97
2019-05-12T10:29:35.910Z,11.00
2019-05-12T10:32:10.286Z,16.27
2019-05-12T10:34:40.426Z,16.87
2019-05-12T10:37:13.352Z,21.93
2019-05-12T10:39:44.192Z,20.50
2019-05-12T10:42:15.153Z,13.67
2019-05-12T10:44:46.162Z,16.40
2019-05-12T10:47:17.143Z,13.67
2019-05-12T10:49:48.199Z,14.70
2019-05-12T10:52:19.180Z,14.00
2019-05-12T10:54:50.153Z,18.57
2019-05-12T10:57:21.221Z,18.50
2019-05-12T10:59:53.356Z,18.67
2019-05-12T11:02:26.442Z,14.40
2019-05-12T11:04:57.254Z,15.80
2019-05-12T11:07:29.961Z,15.13
2019-05-12T11:10:05.614Z,18.63
2019-05-12T11:12:33.802Z,17.23
2019-05-12T11:15:06.699Z,24.67
2019-05-12T11:17:55.209Z,18.10
2019-05-12T11:20:26.188Z,21.13
2019-05-12T11:22:57.179Z,15.17
2019-05-12T11:25:28.834Z,26.70
2019-05-12T11:27:59.865Z,18.27
2019-05-12T11:30:31.039Z,17.30
2019-05-12T11:33:04.056Z,19.97
2019-05-12T11:35:35.411Z,17.67
2019-05-12T11:38:07.484Z,19.70
2019-05-12T11:40:38.467Z,20.50
2019-05-12T11:43:09.510Z,23.60
2019-05-12T11:45:40.597Z,19.53
2019-05-12T11:48:11.634Z,16.37
2019-05-12T11:50:47.779Z,19.60
2019-05-12T11:53:15.434Z,26.17
2019-05-12T11:55:46.432Z,18.93
2019-05-12T11:58:17.395Z,23.50
2019-05-12T12:00:50.703Z,17.67
2019-05-12T12:03:23.378Z,29.13
2019-05-12T12:05:54.614Z,22.73
2019-05-12T12:08:33.769Z,19.43
2019-05-12T12:10:58.299Z,15.83
2019-05-12T12:13:30.133Z,25.07
2019-05-12T12:16:07.101Z,19.37
2019-05-12T12:18:34.035Z,27.70
2019-05-12T12:21:07.601Z,18.90
2019-05-12T12:23:40.883Z,24.60
2019-05-12T12:26:28.261Z,33.03
2019-05-12T12:28:56.460Z,16.30
2019-05-12T12:31:29.763Z,28.37
2019-05-12T12:34:01.745Z,28.43
2019-05-12T12:36:34.159Z,22.10
2019-05-12T12:39:07.101Z,18.33
2019-05-12T12:41:45.783Z,19.93
2019-05-12T12:44:10.807Z,16.77
2019-05-12T12:46:43.959Z,26.63
2019-05-12T12:49:14.551Z,24.60
2019-05-12T12:51:45.823Z,25.40
2019-05-12T12:54:16.910Z,27.20
2019-05-12T12:56:48.958Z,26.47
2019-05-12T12:59:19.940Z,31.97
2019-05-12T13:01:50.997Z,28.97
2019-05-12T13:04:22.038Z,29.47
2019-05-12T13:06:54.323Z,31.27
2019-05-12T13:09:25.404Z,27.83
2019-05-12T13:11:56.389Z,32.50
2019-05-12T13:14:28.529Z,28.80
2019-05-12T13:17:00.163Z,26.70
2019-05-12T13:19:33.135Z,24.87
2019-05-12T13:22:03.899Z,23.23
2019-05-12T13:24:34.910Z,27.67
2019-05-12T13:27:06.092Z,33.87
2019-05-12T13:29:39.707Z,26.30
2019-05-12T13:32:10.786Z,32.87
2019-05-12T13:34:43.007Z,32.27
2019-05-12T13:37:15.544Z,27.60
2019-05-12T13:39:55.225Z,36.80
2019-05-12T13:42:19.606Z,24.97
2019-05-12T13:44:50.592Z,30.40
2019-05-12T13:47:21.572Z,37.27
2019-05-12T13:49:54.426Z,25.80
2019-05-12T13:52:30.016Z,20.00
2019-05-12T13:55:00.066Z,25.83
2019-05-12T13:57:30.755Z,29.70
2019-05-12T14:00:06.755Z,23.60
2019-05-12T14:02:34.692Z,30.57
2019-05-12T14:05:11.528Z,22.73
2019-05-12T14:07:40.053Z,27.57
2019-05-12T14:10:14.003Z,31.50
2019-05-12T14:12:46.146Z,28.97
2019-05-12T14:15:17.313Z,29.50
2019-05-12T14:17:48.433Z,28.73
2019-05-12T14:20:20.409Z,26.70
2019-05-12T14:22:53.777Z,25.20
2019-05-12T14:25:29.874Z,26.97
2019-05-12T14:27:59.421Z,31.50
2019-05-12T14:30:29.969Z,22.37
2019-05-12T14:33:00.976Z,24.73
2019-05-12T14:35:40.446Z,26.87
2019-05-12T14:38:04.715Z,24.33
2019-05-12T14:40:35.781Z,20.00
2019-05-12T14:43:10.197Z,22.80
2019-05-12T14:45:39.568Z,22.77
2019-05-12T14:48:10.571Z,24.60
2019-05-12T14:50:43.993Z,34.13
2019-05-12T14:53:14.630Z,25.57
2019-05-12T14:55:45.931Z,26.20
2019-05-12T14:58:20.493Z,23.43
2019-05-12T15:00:50.843Z,33.77
2019-05-12T15:03:24.187Z,34.00
2019-05-12T15:05:55.623Z,30.37
2019-05-12T15:08:35.954Z,20.23
2019-05-12T15:10:59.591Z,33.77
2019-05-12T15:13:30.569Z,27.30
2019-05-12T15:16:01.590Z,32.43
2019-05-12T15:18:32.628Z,40.57
2019-05-12T15:21:03.712Z,24.23
2019-05-12T15:23:37.481Z,27.10
2019-05-12T15:26:09.555Z,26.83
2019-05-12T15:28:43.310Z,36.40
2019-05-12T15:31:14.483Z,32.53
2019-05-12T15:33:45.849Z,28.27
2019-05-12T15:36:16.922Z,27.33
2019-05-12T15:38:49.257Z,37.70
2019-05-12T15:41:23.720Z,31.57
2019-05-12T15:43:55.884Z,30.90
2019-05-12T15:46:32.789Z,44.30
2019-05-12T15:49:00.053Z,21.13
2019-05-12T15:51:35.468Z,25.27
2019-05-12T15:54:11.320Z,22.50
2019-05-12T15:56:37.682Z,22.73
2019-05-12T15:59:08.630Z,25.50
2019-05-12T16:01:39.764Z,18.93
2019-05-12T16:04:11.995Z,28.60
2019-05-12T16:06:52.996Z,23.90
2019-05-12T16:09:16.128Z,23.40
2019-05-12T16:11:48.507Z,30.20
2019-05-12T16:14:19.488Z,26.53
2019-05-12T16:16:50.472Z,22.90
2019-05-12T16:19:23.447Z,26.30
2019-05-12T16:21:54.218Z,22.00
2019-05-12T16:24:27.338Z,28.30
2019-05-12T16:26:59.017Z,28.40
2019-05-12T16:29:29.990Z,27.63
2019-05-12T16:32:01.036Z,24.80
2019-05-12T16:34:36.129Z,22.67
2019-05-12T16:37:04.811Z,22.47
2019-05-12T16:39:43.838Z,21.33
2019-05-12T16:42:10.535Z,24.60
2019-05-12T16:44:43.829Z,23.70
2019-05-12T16:47:18.711Z,23.80
2019-05-12T16:49:46.989Z,27.73
2019-05-12T16:52:17.986Z,20.13
2019-05-12T16:54:49.021Z,26.10
2019-05-12T16:57:20.173Z,32.67
2019-05-12T16:59:55.957Z,18.93
2019-05-12T17:02:38.383Z,16.20
2019-05-12T17:04:56.802Z,31.87
2019-05-12T17:07:27.810Z,22.63
2019-05-12T17:10:02.971Z,22.97
2019-05-12T17:12:32.422Z,20.43
2019-05-12T17:15:04.617Z,23.80
2019-05-12T17:17:35.758Z,35.03
2019-05-12T17:20:08.008Z,31.83
2019-05-12T17:22:39.079Z,24.37
2019-05-12T17:25:10.697Z,22.87
2019-05-12T17:27:44.476Z,26.17
2019-05-12T17:30:23.902Z,27.70
2019-05-12T17:33:00.894Z,30.90
2019-05-12T17:35:31.611Z,23.83
2019-05-12T17:38:00.785Z,31.00
2019-05-12T17:40:33.859Z,32.67
2019-05-12T17:43:09.285Z,53.20
2019-05-12T17:45:37.656Z,33.40
2019-05-12T17:48:08.722Z,31.83
2019-05-12T17:50:40.579Z,28.47
2019-05-12T17:53:13.832Z,20.03
2019-05-12T17:55:50.827Z,27.10
2019-05-12T17:58:18.055Z,36.13
2019-05-12T18:00:51.876Z,26.63
2019-05-12T18:03:25.374Z,22.73
2019-05-12T18:05:54.674Z,19.43
2019-05-12T18:08:32.746Z,27.57
2019-05-12T18:10:58.748Z,22.30
2019-05-12T18:13:30.039Z,35.80
2019-05-12T18:16:03.552Z,44.00
2019-05-12T18:18:38.008Z,23.57
2019-05-12T18:21:06.586Z,22.00
2019-05-12T18:23:38.792Z,22.70
2019-05-12T18:26:14.365Z,22.40
2019-05-12T18:28:44.217Z,28.73
2019-05-12T18:31:15.578Z,23.03
2019-05-12T18:33:52.013Z,19.40
2019-05-12T18:36:19.293Z,21.37
2019-05-12T18:38:50.283Z,27.50
2019-05-12T18:41:21.272Z,24.23
2019-05-12T18:43:53.889Z,21.00
2019-05-12T18:46:25.223Z,22.30
2019-05-12T18:49:03.709Z,27.20
2019-05-12T18:51:29.025Z,22.03
2019-05-12T18:54:03.850Z,23.30
2019-05-12T18:56:33.622Z,30.87
2019-05-12T18:59:11.525Z,24.10
2019-05-12T19:01:38.108Z,23.30
2019-05-12T19:04:09.140Z,17.23
2019-05-12T19:06:40.106Z,18.70
2019-05-12T19:09:13.690Z,21.37
2019-05-12T19:11:46.668Z,16.37
2019-05-12T19:14:17.209Z,15.23
2019-05-12T19:16:48.241Z,16.20
2019-05-12T19:19:20.082Z,19.87
2019-05-12T19:21:58.509Z,14.90
2019-05-12T19:24:24.269Z,20.17
2019-05-12T19:26:55.273Z,19.10
2019-05-12T19:29:29.653Z,20.70
2019-05-12T19:31:59.034Z,18.03
2019-05-12T19:34:31.725Z,18.47
2019-05-12T19:37:03.265Z,19.50
2019-05-12T19:39:35.587Z,16.27
2019-05-12T19:42:10.624Z,12.03
2019-05-12T19:44:39.350Z,17.00
2019-05-12T19:47:10.409Z,16.00
2019-05-12T19:49:47.944Z,15.73
2019-05-12T19:52:14.601Z,15.30
2019-05-12T19:54:45.666Z,18.17
2019-05-12T19:57:22.193Z,13.40
2019-05-12T19:59:51.175Z,18.43
2019-05-12T20:02:23.729Z,11.80
2019-05-12T20:04:56.681Z,12.47
2019-05-12T20:07:27.665Z,13.73
2019-05-12T20:10:00.642Z,14.03
2019-05-12T20:12:31.556Z,18.13
2019-05-12T20:15:04.045Z,19.27
2019-05-12T20:17:36.298Z,9.77
2019-05-12T20:20:08.830Z,11.47
2019-05-12T20:22:39.803Z,10.40
2019-05-12T20:25:10.955Z,12.00
2019-05-12T20:27:44.347Z,9.37
2019-05-12T20:30:21.043Z,8.63
2019-05-12T20:32:50.428Z,9.97
2019-05-12T20:35:21.432Z,15.10
2019-05-12T20:37:54.592Z,9.90
2019-05-12T20:40:25.074Z,13.20
2019-05-12T20:43:07.807Z,11.20
2019-05-12T20:45:33.058Z,13.70
2019-05-12T20:48:03.879Z,9.30
2019-05-12T20:50:38.566Z,17.20
2019-05-12T20:53:06.955Z,12.23
2019-05-12T20:55:41.325Z,15.23
2019-05-12T20:58:10.653Z,10.37
2019-05-12T21:00:45.475Z,11.07
2019-05-12T21:03:14.278Z,12.53
2019-05-12T21:05:45.280Z,10.50
2019-05-12T21:08:16.310Z,12.63
2019-05-12T21:10:47.332Z,16.80
2019-05-12T21:13:20.507Z,14.13
2019-05-12T21:15:53.943Z,11.50
2019-05-12T21:18:25.333Z,10.37
2019-05-12T21:20:56.307Z,8.50
2019-05-12T21:23:27.324Z,8.30
2019-05-12T21:25:58.517Z,11.47
2019-05-12T21:28:29.697Z,9.80
2019-05-12T21:31:00.700Z,10.97
2019-05-12T21:33:40.029Z,11.63
2019-05-12T21:36:04.538Z,8.17
2019-05-12T21:38:35.518Z,20.43
2019-05-12T21:41:08.087Z,8.83
2019-05-12T21:43:39.425Z,12.47
2019-05-12T21:46:12.654Z,9.60
2019-05-12T21:48:43.058Z,11.73
2019-05-12T21:51:16.841Z,9.20
2019-05-12T21:53:50.561Z,14.50
2019-05-12T21:56:19.441Z,21.20
2019-05-12T21:58:53.816Z,15.43
2019-05-12T22:01:24.016Z,15.20
2019-05-12T22:04:01.936Z,17.23
2019-05-12T22:06:28.158Z,14.03
2019-05-12T22:09:03.007Z,10.20
2019-05-12T22:11:34.882Z,11.07
2019-05-12T22:14:06.288Z,13.37
2019-05-12T22:16:43.561Z,20.37
2019-05-12T22:19:11.865Z,24.90
2019-05-12T22:21:49.393Z,15.10
2019-05-12T22:24:15.583Z,12.50
2019-05-12T22:26:46.872Z,22.73
2019-05-12T22:29:21.168Z,17.43
2019-05-12T22:31:50.711Z,15.53
2019-05-12T22:34:27.650Z,21.27
2019-05-12T22:36:58.742Z,16.23
2019-05-12T22:39:27.232Z,21.07
2019-05-12T22:41:58.232Z,21.40
2019-05-12T22:44:29.283Z,30.40
2019-05-12T22:47:04.225Z,13.17
2019-05-12T22:49:33.847Z,21.80
2019-05-12T22:52:07.244Z,22.70
2019-05-12T22:54:40.575Z,19.30
2019-05-12T22:57:13.116Z,18.47
2019-05-12T22:59:44.890Z,23.20
2019-05-12T23:02:24.438Z,12.77
2019-05-12T23:04:48.740Z,22.53
2019-05-12T23:07:28.104Z,27.13
2019-05-12T23:09:53.763Z,19.83
2019-05-12T23:12:24.789Z,19.60
2019-05-12T23:15:02.878Z,22.77
2019-05-12T23:17:28.531Z,25.70
2019-05-12T23:19:59.655Z,22.73
2019-05-12T23:22:35.269Z,16.10
2019-05-12T23:25:03.951Z,13.10
2019-05-12T23:27:35.131Z,15.97
2019-05-12T23:30:10.847Z,10.93
2019-05-12T23:32:42.918Z,17.00
2019-05-12T23:35:14.442Z,21.87
2019-05-12T23:37:45.723Z,9.90
2019-05-12T23:40:16.837Z,11.00
2019-05-12T23:42:47.931Z,13.50
2019-05-12T23:45:18.920Z,15.93
2019-05-12T23:47:50.992Z,19.90
2019-05-12T23:50:23.968Z,22.43
2019-05-12T23:52:54.763Z,13.00
2019-05-12T23:55:25.850Z,15.27
2019-05-12T23:57:56.845Z,13.30
